Time;durP1;ratioP1;P1;durP2;ratioP2;P2;SDS_P1;SDS_P2;PMS_P1;PMS_P2;Temp;Humidity;BMP_temperature;BMP_pressure;BME280_temperature;BME280_humidity;BME280_pressure;Samples;Min_cycle;Max_cycle;Signal;HPM_P1;HPM_P2
2023/12/19 00:00:11;;;;;;;19.83;15.80;;;;;;;;;;487216;28;1839;-71
2023/12/19 00:00:28;;;;;;;20.20;16.10;;;;;;;;;;491576;28;1643;-71
2023/12/19 00:00:44;;;;;;;20.38;16.17;;;;;;;;;;489006;28;1439;-71
2023/12/19 00:00:59;;;;;;;19.73;15.68;;;;;;;;;;489010;28;1024;-71
2023/12/19 00:01:15;;;;;;;19.37;15.40;;;;;;;;;;487762;28;1426;-70
2023/12/19 00:01:30;;;;;;;19.15;15.50;;;;;;;;;;489530;28;990;-71
2023/12/19 00:01:46;;;;;;;19.10;15.43;;;;;;;;;;489417;28;1287;-71
2023/12/19 00:02:02;;;;;;;19.08;15.32;;;;;;;;;;490607;28;1061;-71
2023/12/19 00:02:17;;;;;;;19.77;16.25;;;;;;;;;;490464;28;985;-71
2023/12/19 00:02:33;;;;;;;20.40;16.53;;;;;;;;;;489733;28;1352;-71
2023/12/19 00:02:48;;;;;;;20.45;16.25;;;;;;;;;;491263;28;1371;-71
2023/12/19 00:03:04;;;;;;;20.27;16.57;;;;;;;;;;491764;28;1139;-71
2023/12/19 00:03:20;;;;;;;20.65;16.40;;;;;;;;;;493487;27;1328;-70
2023/12/19 00:03:35;;;;;;;20.52;15.85;;;;;;;;;;493675;28;1400;-72
2023/12/19 00:03:52;;;;;;;20.05;15.60;;;;;;;;;;492915;28;1333;-71
2023/12/19 00:04:08;;;;;;;20.15;15.70;;;;;;;;;;490466;28;1266;-71
2023/12/19 00:04:23;;;;;;;19.67;15.40;;;;;;;;;;489524;28;1634;-71
2023/12/19 00:04:38;;;;;;;19.13;15.53;;;;;;;;;;491532;28;1359;-71
2023/12/19 00:04:54;;;;;;;18.67;15.68;;;;;;;;;;491457;28;1102;-71
2023/12/19 00:05:09;;;;;;;19.43;15.93;;;;;;;;;;491245;28;1585;-70
2023/12/19 00:05:25;;;;;;;20.48;16.30;;;;;;;;;;489526;28;1335;-71
2023/12/19 00:05:41;;;;;;;20.23;15.97;;;;;;;;;;489070;28;1119;-71
2023/12/19 00:05:56;;;;;;;20.38;15.98;;;;;;;;;;488516;28;1528;-70
2023/12/19 00:06:12;;;;;;;20.35;16.02;;;;;;;;;;490015;28;1392;-70
2023/12/19 00:06:29;;;;;;;19.67;15.60;;;;;;;;;;487581;28;1227;-71
2023/12/19 00:06:45;;;;;;;20.00;15.77;;;;;;;;;;487645;28;1313;-71
2023/12/19 00:07:00;;;;;;;20.30;16.10;;;;;;;;;;486816;28;1314;-70
2023/12/19 00:07:16;;;;;;;20.38;16.40;;;;;;;;;;487488;28;1049;-71
2023/12/19 00:07:32;;;;;;;20.37;16.30;;;;;;;;;;489704;28;1354;-71
2023/12/19 00:07:48;;;;;;;19.60;15.90;;;;;;;;;;487145;28;1437;-71
2023/12/19 00:08:04;;;;;;;19.58;15.75;;;;;;;;;;488474;28;1128;-71
2023/12/19 00:08:19;;;;;;;19.50;15.93;;;;;;;;;;490314;28;1450;-71
2023/12/19 00:08:36;;;;;;;18.42;15.60;;;;;;;;;;491470;28;935;-72
2023/12/19 00:08:51;;;;;;;19.52;15.60;;;;;;;;;;491221;28;1407;-72
2023/12/19 00:09:09;;;;;;;20.52;15.73;;;;;;;;;;489884;28;1265;-71
2023/12/19 00:09:25;;;;;;;19.15;15.55;;;;;;;;;;489997;28;1033;-71
2023/12/19 00:09:40;;;;;;;19.58;16.08;;;;;;;;;;491001;28;1016;-71
2023/12/19 00:09:56;;;;;;;20.23;16.33;;;;;;;;;;490970;28;1530;-71
2023/12/19 00:10:12;;;;;;;20.05;16.10;;;;;;;;;;490685;28;1076;-71
2023/12/19 00:10:27;;;;;;;19.92;16.13;;;;;;;;;;491853;28;1341;-71
2023/12/19 00:10:43;;;;;;;20.03;16.13;;;;;;;;;;490865;27;1724;-72
2023/12/19 00:10:58;;;;;;;20.33;16.25;;;;;;;;;;493902;27;856;-71
2023/12/19 00:11:14;;;;;;;19.13;15.77;;;;;;;;;;496026;27;1357;-71
2023/12/19 00:11:29;;;;;;;19.30;15.50;;;;;;;;;;495901;27;1330;-70
2023/12/19 00:11:45;;;;;;;19.83;15.70;;;;;;;;;;493124;28;1565;-72
2023/12/19 00:12:00;;;;;;;19.23;15.20;;;;;;;;;;491225;28;1344;-71
2023/12/19 00:12:16;;;;;;;19.87;15.43;;;;;;;;;;490232;28;1331;-71
2023/12/19 00:12:31;;;;;;;20.23;15.73;;;;;;;;;;491715;28;934;-71
2023/12/19 00:12:47;;;;;;;20.43;15.80;;;;;;;;;;491044;28;1028;-71
2023/12/19 00:13:02;;;;;;;20.30;15.87;;;;;;;;;;489413;28;1198;-71
2023/12/19 00:13:18;;;;;;;18.90;15.50;;;;;;;;;;489167;28;1025;-71
2023/12/19 00:13:33;;;;;;;18.80;15.52;;;;;;;;;;489846;28;909;-71
2023/12/19 00:13:49;;;;;;;19.80;16.10;;;;;;;;;;492170;28;1001;-71
2023/12/19 00:14:04;;;;;;;20.70;16.45;;;;;;;;;;492897;28;1013;-71
2023/12/19 00:14:20;;;;;;;20.13;15.87;;;;;;;;;;493206;27;1264;-71
2023/12/19 00:14:35;;;;;;;19.58;15.63;;;;;;;;;;491328;28;1403;-71
2023/12/19 00:14:50;;;;;;;18.83;15.33;;;;;;;;;;491493;28;1426;-71
2023/12/19 00:15:07;;;;;;;19.43;15.53;;;;;;;;;;493223;28;1023;-71
2023/12/19 00:15:22;;;;;;;20.42;16.33;;;;;;;;;;491094;28;1234;-70
2023/12/19 00:15:38;;;;;;;20.07;16.10;;;;;;;;;;491377;28;2015;-70
2023/12/19 00:15:53;;;;;;;19.23;15.60;;;;;;;;;;491722;28;1355;-71
2023/12/19 00:16:08;;;;;;;18.77;15.60;;;;;;;;;;491447;28;1348;-71
2023/12/19 00:16:24;;;;;;;19.27;15.70;;;;;;;;;;490629;28;1331;-71
2023/12/19 00:16:39;;;;;;;19.95;15.73;;;;;;;;;;491370;28;909;-71
2023/12/19 00:16:55;;;;;;;20.30;15.93;;;;;;;;;;490969;28;1295;-71
2023/12/19 00:17:10;;;;;;;19.85;15.98;;;;;;;;;;489592;28;1356;-71
2023/12/19 00:17:26;;;;;;;19.63;16.07;;;;;;;;;;491290;28;1657;-71
2023/12/19 00:17:43;;;;;;;19.83;15.97;;;;;;;;;;491348;28;1213;-71
2023/12/19 00:18:01;;;;;;;20.58;16.15;;;;;;;;;;491974;28;1253;-71
2023/12/19 00:18:16;;;;;;;19.65;15.65;;;;;;;;;;491681;28;1366;-72
2023/12/19 00:18:32;;;;;;;19.50;15.32;;;;;;;;;;490915;28;1697;-71
2023/12/19 00:18:47;;;;;;;19.70;15.77;;;;;;;;;;491128;28;1673;-70
2023/12/19 00:19:03;;;;;;;19.92;15.77;;;;;;;;;;491057;28;1282;-71
2023/12/19 00:19:18;;;;;;;20.50;15.90;;;;;;;;;;492281;28;893;-71
2023/12/19 00:19:34;;;;;;;21.00;16.10;;;;;;;;;;492032;28;1376;-71
2023/12/19 00:19:49;;;;;;;19.60;15.65;;;;;;;;;;490838;28;1429;-72
2023/12/19 00:20:05;;;;;;;19.30;16.13;;;;;;;;;;489333;28;1440;-71
2023/12/19 00:20:20;;;;;;;20.38;16.08;;;;;;;;;;487334;28;1327;-72
2023/12/19 00:20:36;;;;;;;20.48;15.95;;;;;;;;;;485038;28;1214;-71
2023/12/19 00:20:53;;;;;;;19.13;15.47;;;;;;;;;;483845;28;1236;-71
2023/12/19 00:21:09;;;;;;;18.38;14.98;;;;;;;;;;485035;28;1159;-70
2023/12/19 00:21:25;;;;;;;18.92;15.50;;;;;;;;;;486843;28;1230;-71
2023/12/19 00:21:40;;;;;;;19.00;15.60;;;;;;;;;;486692;28;1086;-70
2023/12/19 00:21:56;;;;;;;18.97;15.60;;;;;;;;;;488188;28;1124;-70
2023/12/19 00:22:11;;;;;;;18.85;15.50;;;;;;;;;;489033;28;1025;-71
2023/12/19 00:22:27;;;;;;;19.00;15.27;;;;;;;;;;490301;28;1222;-71
2023/12/19 00:22:42;;;;;;;18.73;15.00;;;;;;;;;;491396;28;1058;-71
2023/12/19 00:22:58;;;;;;;18.40;15.07;;;;;;;;;;493356;28;1099;-71
2023/12/19 00:23:13;;;;;;;19.77;15.77;;;;;;;;;;491930;28;1416;-71
2023/12/19 00:23:30;;;;;;;20.10;16.02;;;;;;;;;;491131;28;1444;-71
2023/12/19 00:23:46;;;;;;;19.73;16.00;;;;;;;;;;491998;28;948;-71
2023/12/19 00:24:01;;;;;;;19.43;15.73;;;;;;;;;;489700;28;1231;-71
2023/12/19 00:24:17;;;;;;;18.50;15.38;;;;;;;;;;488815;28;933;-71
2023/12/19 00:24:32;;;;;;;18.30;15.20;;;;;;;;;;488487;28;1139;-71
2023/12/19 00:24:48;;;;;;;18.70;15.00;;;;;;;;;;489746;28;1281;-71
2023/12/19 00:25:03;;;;;;;18.17;15.00;;;;;;;;;;490141;28;956;-71
2023/12/19 00:25:19;;;;;;;17.85;15.05;;;;;;;;;;489796;28;1231;-71
2023/12/19 00:25:34;;;;;;;18.60;15.17;;;;;;;;;;491372;28;1058;-72
2023/12/19 00:25:50;;;;;;;18.67;14.85;;;;;;;;;;490310;28;901;-71
2023/12/19 00:26:05;;;;;;;19.83;15.10;;;;;;;;;;491738;28;1008;-71
2023/12/19 00:26:21;;;;;;;20.10;15.18;;;;;;;;;;493062;28;955;-71
2023/12/19 00:26:37;;;;;;;19.13;15.10;;;;;;;;;;492772;28;1119;-71
2023/12/19 00:26:52;;;;;;;19.23;15.45;;;;;;;;;;491178;28;1258;-71
2023/12/19 00:27:07;;;;;;;19.90;15.77;;;;;;;;;;491002;28;999;-70
2023/12/19 00:27:23;;;;;;;19.40;15.73;;;;;;;;;;493708;28;1119;-71
2023/12/19 00:27:38;;;;;;;18.95;15.52;;;;;;;;;;493571;28;990;-71
2023/12/19 00:27:54;;;;;;;19.33;15.30;;;;;;;;;;494226;28;1051;-71
2023/12/19 00:28:09;;;;;;;18.50;15.18;;;;;;;;;;492657;28;1041;-72
2023/12/19 00:28:27;;;;;;;18.33;15.00;;;;;;;;;;491899;28;1063;-71
2023/12/19 00:28:43;;;;;;;18.38;15.02;;;;;;;;;;493846;27;1344;-71
2023/12/19 00:28:59;;;;;;;19.52;15.93;;;;;;;;;;495065;27;1108;-71
2023/12/19 00:29:14;;;;;;;20.38;16.23;;;;;;;;;;493663;28;1335;-70
2023/12/19 00:29:30;;;;;;;19.23;15.70;;;;;;;;;;492661;28;1305;-71
2023/12/19 00:29:45;;;;;;;18.70;15.60;;;;;;;;;;492281;28;1229;-71
2023/12/19 00:30:01;;;;;;;19.63;16.33;;;;;;;;;;492357;28;988;-71
2023/12/19 00:30:16;;;;;;;19.65;16.35;;;;;;;;;;492400;28;1163;-72
2023/12/19 00:30:31;;;;;;;19.33;15.93;;;;;;;;;;491998;28;962;-71
2023/12/19 00:30:47;;;;;;;19.17;15.50;;;;;;;;;;492228;28;1322;-71
2023/12/19 00:31:02;;;;;;;18.33;14.97;;;;;;;;;;490489;28;1379;-71
2023/12/19 00:31:21;;;;;;;18.58;15.07;;;;;;;;;;489674;28;1108;-70
2023/12/19 00:31:37;;;;;;;20.23;15.80;;;;;;;;;;489228;28;1429;-71
2023/12/19 00:31:52;;;;;;;20.02;16.15;;;;;;;;;;489511;28;958;-71
2023/12/19 00:32:08;;;;;;;18.07;15.57;;;;;;;;;;489466;28;1341;-71
2023/12/19 00:32:23;;;;;;;17.58;15.13;;;;;;;;;;488466;28;1349;-71
2023/12/19 00:32:39;;;;;;;18.73;15.70;;;;;;;;;;490276;28;1282;-71
2023/12/19 00:32:54;;;;;;;19.80;15.95;;;;;;;;;;491415;28;1336;-73
2023/12/19 00:33:10;;;;;;;19.60;15.70;;;;;;;;;;491668;28;1288;-71
2023/12/19 00:33:25;;;;;;;19.38;15.05;;;;;;;;;;491424;28;1310;-72
2023/12/19 00:33:40;;;;;;;18.93;14.43;;;;;;;;;;493284;28;1435;-71
2023/12/19 00:33:56;;;;;;;18.63;14.82;;;;;;;;;;491505;28;1595;-70
2023/12/19 00:34:13;;;;;;;19.07;15.33;;;;;;;;;;491361;28;1502;-70
2023/12/19 00:34:29;;;;;;;18.98;15.30;;;;;;;;;;491420;28;1535;-71
2023/12/19 00:34:44;;;;;;;18.35;14.95;;;;;;;;;;493329;28;932;-71
2023/12/19 00:35:00;;;;;;;17.63;14.50;;;;;;;;;;493022;28;1634;-71
2023/12/19 00:35:15;;;;;;;18.25;14.88;;;;;;;;;;492916;28;984;-71
2023/12/19 00:35:32;;;;;;;18.23;14.83;;;;;;;;;;491559;28;1182;-71
2023/12/19 00:35:47;;;;;;;18.42;15.23;;;;;;;;;;490319;28;1938;-71
2023/12/19 00:36:03;;;;;;;18.27;15.23;;;;;;;;;;488923;28;1579;-71
2023/12/19 00:36:22;;;;;;;18.30;15.00;;;;;;;;;;487162;28;1342;-71
2023/12/19 00:36:38;;;;;;;18.77;15.07;;;;;;;;;;485453;28;1362;-71
2023/12/19 00:36:53;;;;;;;19.17;15.33;;;;;;;;;;488055;28;1157;-70
2023/12/19 00:37:08;;;;;;;19.50;15.63;;;;;;;;;;487526;28;1325;-70
2023/12/19 00:37:24;;;;;;;19.35;15.73;;;;;;;;;;486307;28;1240;-70
2023/12/19 00:37:40;;;;;;;19.02;15.55;;;;;;;;;;486129;28;1530;-71
2023/12/19 00:37:55;;;;;;;19.07;15.50;;;;;;;;;;488399;28;1515;-71
2023/12/19 00:38:11;;;;;;;19.40;15.48;;;;;;;;;;489506;28;1054;-71
2023/12/19 00:38:26;;;;;;;19.90;15.90;;;;;;;;;;489421;28;1330;-71
2023/12/19 00:38:41;;;;;;;19.42;15.88;;;;;;;;;;487598;28;1274;-72
2023/12/19 00:38:57;;;;;;;18.93;15.37;;;;;;;;;;487641;28;1545;-71
2023/12/19 00:39:12;;;;;;;19.67;15.77;;;;;;;;;;489079;28;1417;-71
2023/12/19 00:39:28;;;;;;;18.83;15.70;;;;;;;;;;490176;28;1697;-71
2023/12/19 00:39:43;;;;;;;18.15;15.23;;;;;;;;;;489859;28;1219;-71
2023/12/19 00:39:59;;;;;;;19.40;15.30;;;;;;;;;;491042;28;1099;-71
2023/12/19 00:40:14;;;;;;;19.93;15.43;;;;;;;;;;490188;28;1738;-71
2023/12/19 00:40:30;;;;;;;19.42;15.55;;;;;;;;;;488545;28;1465;-71
2023/12/19 00:40:45;;;;;;;18.80;15.47;;;;;;;;;;488442;28;1163;-71
2023/12/19 00:41:00;;;;;;;18.42;15.23;;;;;;;;;;486554;28;1732;-71
2023/12/19 00:41:16;;;;;;;19.10;15.50;;;;;;;;;;489273;28;1037;-71
2023/12/19 00:41:32;;;;;;;19.17;15.73;;;;;;;;;;489566;28;1507;-71
2023/12/19 00:41:47;;;;;;;18.73;15.47;;;;;;;;;;489570;28;2015;-71
2023/12/19 00:42:03;;;;;;;18.70;15.57;;;;;;;;;;488843;28;1376;-71
2023/12/19 00:42:18;;;;;;;18.70;15.60;;;;;;;;;;489005;28;1363;-71
2023/12/19 00:42:34;;;;;;;17.97;15.27;;;;;;;;;;489605;28;1227;-72
2023/12/19 00:42:49;;;;;;;19.13;15.63;;;;;;;;;;489795;28;1214;-71
2023/12/19 00:43:05;;;;;;;19.70;15.60;;;;;;;;;;489020;28;1012;-71
2023/12/19 00:43:20;;;;;;;18.47;15.07;;;;;;;;;;490630;28;1326;-71
2023/12/19 00:43:36;;;;;;;18.05;14.85;;;;;;;;;;491602;28;1320;-71
2023/12/19 00:43:51;;;;;;;17.77;14.67;;;;;;;;;;489793;28;1542;-71
2023/12/19 00:44:06;;;;;;;17.60;14.77;;;;;;;;;;486595;28;1296;-71
2023/12/19 00:44:22;;;;;;;18.27;15.30;;;;;;;;;;489545;28;1346;-71
2023/12/19 00:44:37;;;;;;;18.58;15.20;;;;;;;;;;489653;28;1089;-71
2023/12/19 00:44:53;;;;;;;18.03;14.60;;;;;;;;;;491365;28;1681;-71
2023/12/19 00:45:09;;;;;;;17.92;14.52;;;;;;;;;;487967;28;1270;-71
2023/12/19 00:45:24;;;;;;;18.08;14.88;;;;;;;;;;489217;28;1273;-71
2023/12/19 00:45:39;;;;;;;18.57;15.10;;;;;;;;;;489353;28;1323;-71
2023/12/19 00:45:55;;;;;;;18.90;15.13;;;;;;;;;;489335;28;1252;-71
2023/12/19 00:46:11;;;;;;;18.83;15.40;;;;;;;;;;489129;28;1339;-71
2023/12/19 00:46:26;;;;;;;18.20;15.00;;;;;;;;;;491210;28;1395;-71
2023/12/19 00:46:43;;;;;;;18.37;14.90;;;;;;;;;;490541;28;1659;-70
2023/12/19 00:46:58;;;;;;;18.98;15.13;;;;;;;;;;491096;28;1402;-71
2023/12/19 00:47:14;;;;;;;18.57;15.40;;;;;;;;;;491134;28;1402;-71
2023/12/19 00:47:29;;;;;;;18.02;15.45;;;;;;;;;;490416;28;1449;-71
2023/12/19 00:47:45;;;;;;;18.23;15.00;;;;;;;;;;487933;28;1400;-70
2023/12/19 00:48:00;;;;;;;17.95;14.63;;;;;;;;;;489490;28;1397;-70
2023/12/19 00:48:15;;;;;;;17.93;14.57;;;;;;;;;;490038;28;1373;-71
2023/12/19 00:48:31;;;;;;;18.00;14.82;;;;;;;;;;490754;28;1414;-72
2023/12/19 00:48:47;;;;;;;18.00;15.10;;;;;;;;;;491282;28;1383;-71
2023/12/19 00:49:02;;;;;;;17.83;14.90;;;;;;;;;;489596;28;921;-71
2023/12/19 00:49:18;;;;;;;17.53;14.50;;;;;;;;;;491160;28;1422;-70
2023/12/19 00:49:33;;;;;;;17.83;14.68;;;;;;;;;;491395;28;1370;-71
2023/12/19 00:49:50;;;;;;;17.80;14.93;;;;;;;;;;494227;27;1335;-71
2023/12/19 00:50:07;;;;;;;17.75;14.57;;;;;;;;;;493100;27;1174;-70
2023/12/19 00:50:23;;;;;;;17.67;14.68;;;;;;;;;;491669;28;1458;-71
2023/12/19 00:50:38;;;;;;;17.83;14.97;;;;;;;;;;489264;28;1444;-71
2023/12/19 00:50:53;;;;;;;18.93;15.07;;;;;;;;;;489443;28;1295;-70
2023/12/19 00:51:10;;;;;;;19.35;15.13;;;;;;;;;;492082;28;1028;-72
2023/12/19 00:51:25;;;;;;;18.17;14.82;;;;;;;;;;491531;28;957;-70
2023/12/19 00:51:41;;;;;;;18.30;15.00;;;;;;;;;;490830;28;1385;-70
2023/12/19 00:51:56;;;;;;;18.37;15.00;;;;;;;;;;491094;28;1394;-71
2023/12/19 00:52:12;;;;;;;17.85;14.82;;;;;;;;;;491432;28;1461;-71
2023/12/19 00:52:29;;;;;;;18.50;15.10;;;;;;;;;;493050;27;1557;-73
2023/12/19 00:52:45;;;;;;;17.95;14.63;;;;;;;;;;492713;27;1447;-71
2023/12/19 00:53:00;;;;;;;17.17;14.13;;;;;;;;;;491573;28;1320;-71
2023/12/19 00:53:16;;;;;;;17.88;14.50;;;;;;;;;;491657;28;1764;-71
2023/12/19 00:53:31;;;;;;;18.47;14.87;;;;;;;;;;490834;28;1540;-72
2023/12/19 00:53:47;;;;;;;18.17;14.77;;;;;;;;;;490935;28;1288;-71
2023/12/19 00:54:02;;;;;;;17.67;14.43;;;;;;;;;;491364;28;1322;-71
2023/12/19 00:54:18;;;;;;;18.40;14.75;;;;;;;;;;491425;28;1032;-71
2023/12/19 00:54:33;;;;;;;18.80;15.03;;;;;;;;;;489879;28;1315;-71
2023/12/19 00:54:49;;;;;;;18.23;14.93;;;;;;;;;;489577;28;1233;-70
2023/12/19 00:55:05;;;;;;;18.10;14.83;;;;;;;;;;483083;28;1260;-70
2023/12/19 00:55:20;;;;;;;18.67;14.85;;;;;;;;;;487185;28;998;-71
2023/12/19 00:55:36;;;;;;;18.00;14.65;;;;;;;;;;487888;28;1155;-70
2023/12/19 00:55:51;;;;;;;17.07;14.30;;;;;;;;;;485741;28;1936;-71
2023/12/19 00:56:08;;;;;;;17.90;14.93;;;;;;;;;;486884;28;1723;-71
2023/12/19 00:56:24;;;;;;;18.42;15.10;;;;;;;;;;487475;28;1368;-71
2023/12/19 00:56:42;;;;;;;18.77;15.23;;;;;;;;;;490488;28;1344;-71
2023/12/19 00:56:58;;;;;;;18.23;14.98;;;;;;;;;;491481;28;1492;-70
2023/12/19 00:57:13;;;;;;;18.20;14.37;;;;;;;;;;489575;28;1206;-71
2023/12/19 00:57:29;;;;;;;19.00;14.68;;;;;;;;;;486691;28;1337;-71
2023/12/19 00:57:45;;;;;;;17.87;14.53;;;;;;;;;;487134;28;1293;-72
2023/12/19 00:58:00;;;;;;;17.65;14.32;;;;;;;;;;490689;28;1184;-71
2023/12/19 00:58:15;;;;;;;18.25;14.65;;;;;;;;;;487343;28;1503;-71
2023/12/19 00:58:31;;;;;;;17.43;14.43;;;;;;;;;;487739;28;1427;-71
2023/12/19 00:58:47;;;;;;;17.35;14.38;;;;;;;;;;488070;28;1684;-71
2023/12/19 00:59:02;;;;;;;17.60;14.23;;;;;;;;;;489950;28;1358;-71
2023/12/19 00:59:18;;;;;;;16.80;14.20;;;;;;;;;;491278;28;1373;-71
2023/12/19 00:59:33;;;;;;;16.87;14.63;;;;;;;;;;491938;28;1657;-71
2023/12/19 00:59:48;;;;;;;16.77;14.43;;;;;;;;;;491787;28;1339;-71
2023/12/19 01:00:05;;;;;;;16.50;14.13;;;;;;;;;;487439;28;1296;-71
2023/12/19 01:00:20;;;;;;;16.93;14.13;;;;;;;;;;491968;28;1031;-71
2023/12/19 01:00:36;;;;;;;16.53;13.90;;;;;;;;;;491328;28;917;-70
2023/12/19 01:00:51;;;;;;;16.20;13.80;;;;;;;;;;491712;27;1153;-71
2023/12/19 01:01:07;;;;;;;16.07;13.90;;;;;;;;;;493583;27;956;-71
2023/12/19 01:01:23;;;;;;;16.42;14.10;;;;;;;;;;492991;27;946;-71
2023/12/19 01:01:39;;;;;;;16.45;14.13;;;;;;;;;;493681;27;1054;-70
2023/12/19 01:01:56;;;;;;;16.38;13.77;;;;;;;;;;493893;27;1237;-70
2023/12/19 01:02:11;;;;;;;16.63;13.65;;;;;;;;;;493255;27;1155;-71
2023/12/19 01:02:31;;;;;;;16.83;13.80;;;;;;;;;;493017;27;1226;-71
2023/12/19 01:02:46;;;;;;;16.70;13.88;;;;;;;;;;491564;28;1088;-71
2023/12/19 01:03:02;;;;;;;16.23;14.00;;;;;;;;;;490881;28;1276;-70
2023/12/19 01:03:17;;;;;;;17.08;14.13;;;;;;;;;;490091;28;1308;-71
2023/12/19 01:03:33;;;;;;;17.20;13.87;;;;;;;;;;490017;28;919;-71
2023/12/19 01:03:49;;;;;;;16.27;13.95;;;;;;;;;;491036;28;1116;-71
2023/12/19 01:04:04;;;;;;;15.88;14.05;;;;;;;;;;492305;28;945;-71
2023/12/19 01:04:20;;;;;;;17.23;14.47;;;;;;;;;;492466;27;1311;-71
2023/12/19 01:04:36;;;;;;;17.80;14.55;;;;;;;;;;493992;27;1135;-71
2023/12/19 01:04:51;;;;;;;18.20;14.70;;;;;;;;;;491856;28;1254;-70
2023/12/19 01:05:07;;;;;;;18.40;14.80;;;;;;;;;;489847;28;1227;-71
2023/12/19 01:05:23;;;;;;;17.45;14.65;;;;;;;;;;487099;28;1307;-71
2023/12/19 01:05:38;;;;;;;17.70;14.90;;;;;;;;;;487878;28;1067;-70
2023/12/19 01:05:54;;;;;;;17.60;14.70;;;;;;;;;;487868;28;1171;-71
2023/12/19 01:06:09;;;;;;;17.20;14.38;;;;;;;;;;487298;28;1332;-71
2023/12/19 01:06:25;;;;;;;17.43;14.47;;;;;;;;;;485760;28;1251;-70
2023/12/19 01:06:40;;;;;;;18.10;14.50;;;;;;;;;;485956;28;1223;-70
2023/12/19 01:06:56;;;;;;;17.98;14.23;;;;;;;;;;487539;28;917;-71
2023/12/19 01:07:11;;;;;;;17.03;14.03;;;;;;;;;;488011;28;1043;-70
2023/12/19 01:07:27;;;;;;;16.97;14.10;;;;;;;;;;488929;28;1225;-70
2023/12/19 01:07:42;;;;;;;16.63;14.07;;;;;;;;;;488394;28;1113;-71
2023/12/19 01:07:58;;;;;;;16.13;14.13;;;;;;;;;;486708;28;1216;-71
2023/12/19 01:08:13;;;;;;;16.75;14.07;;;;;;;;;;488783;28;1405;-70
2023/12/19 01:08:29;;;;;;;16.83;14.15;;;;;;;;;;489892;28;960;-71
2023/12/19 01:08:45;;;;;;;16.80;13.80;;;;;;;;;;489762;28;1199;-71
2023/12/19 01:09:00;;;;;;;15.75;13.13;;;;;;;;;;489773;28;1199;-71
2023/12/19 01:09:16;;;;;;;15.00;12.70;;;;;;;;;;489990;28;1538;-71
2023/12/19 01:09:31;;;;;;;15.27;12.27;;;;;;;;;;492132;28;1286;-71
2023/12/19 01:09:47;;;;;;;15.25;12.45;;;;;;;;;;491567;28;1329;-71
2023/12/19 01:10:03;;;;;;;15.33;12.73;;;;;;;;;;490207;28;1249;-71
2023/12/19 01:10:18;;;;;;;15.10;12.80;;;;;;;;;;489193;28;1064;-70
2023/12/19 01:10:33;;;;;;;14.95;12.88;;;;;;;;;;489986;28;1243;-70
2023/12/19 01:10:49;;;;;;;15.67;12.97;;;;;;;;;;485898;28;1214;-70
2023/12/19 01:11:07;;;;;;;16.30;13.13;;;;;;;;;;487002;28;1132;-71
2023/12/19 01:11:22;;;;;;;15.98;13.13;;;;;;;;;;486959;28;1024;-70
2023/12/19 01:11:37;;;;;;;15.80;13.18;;;;;;;;;;488007;28;1234;-71
2023/12/19 01:11:53;;;;;;;15.07;12.93;;;;;;;;;;488565;28;1333;-71
2023/12/19 01:12:08;;;;;;;15.00;12.88;;;;;;;;;;487788;28;1211;-71
2023/12/19 01:12:24;;;;;;;15.20;12.97;;;;;;;;;;488594;28;1096;-70
2023/12/19 01:12:39;;;;;;;15.20;13.10;;;;;;;;;;490018;28;1147;-70
2023/12/19 01:12:54;;;;;;;16.00;13.48;;;;;;;;;;492163;28;947;-71
2023/12/19 01:13:10;;;;;;;16.13;13.73;;;;;;;;;;490233;28;925;-71
2023/12/19 01:13:25;;;;;;;15.40;13.45;;;;;;;;;;488571;28;1238;-71
2023/12/19 01:13:41;;;;;;;15.97;13.33;;;;;;;;;;489821;28;1096;-71
2023/12/19 01:13:56;;;;;;;17.08;13.80;;;;;;;;;;492308;27;987;-70
2023/12/19 01:14:20;;;;;;;16.83;14.03;;;;;;;;;;490888;28;1042;-72
2023/12/19 01:14:35;;;;;;;16.00;13.68;;;;;;;;;;491574;28;1158;-70
2023/12/19 01:14:51;;;;;;;16.30;13.50;;;;;;;;;;491304;28;1079;-70
2023/12/19 01:15:07;;;;;;;16.37;13.60;;;;;;;;;;491860;28;952;-71
2023/12/19 01:15:24;;;;;;;15.82;13.32;;;;;;;;;;492967;27;1052;-71
2023/12/19 01:15:39;;;;;;;15.90;13.52;;;;;;;;;;490577;28;1965;-71
2023/12/19 01:15:54;;;;;;;16.88;13.70;;;;;;;;;;488906;28;1167;-71
2023/12/19 01:16:12;;;;;;;15.90;13.07;;;;;;;;;;491242;28;1012;-71
2023/12/19 01:16:28;;;;;;;14.20;12.40;;;;;;;;;;491852;28;1260;-71
2023/12/19 01:16:43;;;;;;;15.27;12.82;;;;;;;;;;488004;28;1268;-72
2023/12/19 01:16:59;;;;;;;15.80;13.07;;;;;;;;;;488562;28;1302;-70
2023/12/19 01:17:14;;;;;;;15.10;12.57;;;;;;;;;;489562;28;1314;-70
2023/12/19 01:17:30;;;;;;;15.27;12.80;;;;;;;;;;489766;28;1052;-71
2023/12/19 01:17:45;;;;;;;15.15;12.70;;;;;;;;;;489451;28;1230;-70
2023/12/19 01:18:01;;;;;;;14.87;12.30;;;;;;;;;;490100;28;1124;-71
2023/12/19 01:18:17;;;;;;;14.00;12.00;;;;;;;;;;487313;28;1316;-71
2023/12/19 01:18:32;;;;;;;13.77;12.13;;;;;;;;;;487642;28;964;-70
2023/12/19 01:18:47;;;;;;;14.20;12.20;;;;;;;;;;488105;28;1203;-71
2023/12/19 01:19:06;;;;;;;14.20;12.13;;;;;;;;;;489451;28;1092;-70
2023/12/19 01:19:24;;;;;;;14.60;12.23;;;;;;;;;;488916;28;1251;-70
2023/12/19 01:19:39;;;;;;;14.73;12.23;;;;;;;;;;490267;28;1182;-70
2023/12/19 01:19:55;;;;;;;15.30;12.10;;;;;;;;;;491872;28;1048;-71
2023/12/19 01:20:10;;;;;;;17.33;11.85;;;;;;;;;;492795;27;906;-71
2023/12/19 01:20:27;;;;;;;15.60;11.60;;;;;;;;;;493568;27;952;-70
2023/12/19 01:20:42;;;;;;;13.98;11.52;;;;;;;;;;494430;27;1076;-70
2023/12/19 01:20:57;;;;;;;14.53;11.93;;;;;;;;;;495381;27;1060;-71
2023/12/19 01:21:13;;;;;;;14.07;12.37;;;;;;;;;;492816;27;1139;-71
2023/12/19 01:21:29;;;;;;;14.15;12.25;;;;;;;;;;493669;27;1690;-71
2023/12/19 01:21:44;;;;;;;14.18;12.10;;;;;;;;;;491096;28;1040;-71
2023/12/19 01:21:59;;;;;;;13.90;12.20;;;;;;;;;;492053;28;1048;-70
2023/12/19 01:22:15;;;;;;;13.77;11.90;;;;;;;;;;489336;28;1223;-70
2023/12/19 01:22:30;;;;;;;13.67;11.67;;;;;;;;;;488003;28;1214;-70
2023/12/19 01:22:46;;;;;;;14.13;12.07;;;;;;;;;;487370;28;1116;-70
2023/12/19 01:23:01;;;;;;;14.77;12.37;;;;;;;;;;487771;28;1043;-70
2023/12/19 01:23:17;;;;;;;14.40;12.20;;;;;;;;;;489559;28;1051;-71
2023/12/19 01:23:32;;;;;;;14.65;12.07;;;;;;;;;;487713;28;1399;-70
2023/12/19 01:23:47;;;;;;;14.97;12.10;;;;;;;;;;488160;28;1031;-70
2023/12/19 01:24:03;;;;;;;14.65;12.05;;;;;;;;;;488961;28;1198;-70
2023/12/19 01:24:19;;;;;;;14.02;11.95;;;;;;;;;;489715;28;1147;-71
2023/12/19 01:24:35;;;;;;;13.83;11.90;;;;;;;;;;490692;28;961;-71
2023/12/19 01:24:50;;;;;;;14.50;12.10;;;;;;;;;;491267;28;1127;-70
2023/12/19 01:25:06;;;;;;;14.50;11.93;;;;;;;;;;489676;28;1360;-70
2023/12/19 01:25:22;;;;;;;14.50;11.70;;;;;;;;;;489748;28;1032;-70
2023/12/19 01:25:39;;;;;;;14.33;11.73;;;;;;;;;;490928;28;965;-71
2023/12/19 01:25:54;;;;;;;13.93;11.82;;;;;;;;;;487476;28;1278;-70
2023/12/19 01:26:10;;;;;;;14.30;11.80;;;;;;;;;;489800;28;1343;-70
2023/12/19 01:26:25;;;;;;;14.73;12.10;;;;;;;;;;489701;28;1016;-71
2023/12/19 01:26:41;;;;;;;13.48;11.55;;;;;;;;;;487744;28;1247;-71
2023/12/19 01:26:56;;;;;;;13.03;11.27;;;;;;;;;;487677;28;1347;-71
2023/12/19 01:27:12;;;;;;;13.65;11.77;;;;;;;;;;484970;28;1361;-70
2023/12/19 01:27:27;;;;;;;13.30;11.27;;;;;;;;;;485955;28;977;-72
2023/12/19 01:27:42;;;;;;;13.07;10.80;;;;;;;;;;485977;28;1162;-70
2023/12/19 01:27:58;;;;;;;12.90;10.87;;;;;;;;;;488530;28;1140;-70
2023/12/19 01:28:14;;;;;;;13.10;10.90;;;;;;;;;;489116;28;1124;-71
2023/12/19 01:28:29;;;;;;;13.60;11.00;;;;;;;;;;489340;28;1354;-71
2023/12/19 01:28:45;;;;;;;12.80;10.80;;;;;;;;;;490831;27;1029;-71
2023/12/19 01:29:01;;;;;;;12.10;10.80;;;;;;;;;;491541;27;1239;-71
2023/12/19 01:29:16;;;;;;;12.63;11.15;;;;;;;;;;493223;27;1105;-71
2023/12/19 01:29:31;;;;;;;12.40;10.98;;;;;;;;;;490844;28;1143;-70
2023/12/19 01:29:47;;;;;;;12.73;11.03;;;;;;;;;;491300;28;1112;-71
2023/12/19 01:30:02;;;;;;;13.23;11.25;;;;;;;;;;489681;28;1423;-70
2023/12/19 01:30:25;;;;;;;12.43;10.75;;;;;;;;;;388170;28;10000707;-71
2023/12/19 01:30:41;;;;;;;12.32;10.65;;;;;;;;;;489729;28;1201;-70
2023/12/19 01:30:56;;;;;;;12.20;10.33;;;;;;;;;;492087;28;976;-70
2023/12/19 01:31:11;;;;;;;11.10;9.80;;;;;;;;;;491978;28;1190;-70
2023/12/19 01:31:27;;;;;;;11.47;9.97;;;;;;;;;;493204;27;1019;-71
2023/12/19 01:31:42;;;;;;;12.52;10.55;;;;;;;;;;493199;27;1191;-70
2023/12/19 01:31:58;;;;;;;12.43;10.57;;;;;;;;;;495270;27;1089;-70
2023/12/19 01:32:13;;;;;;;11.55;10.27;;;;;;;;;;495675;27;968;-70
2023/12/19 01:32:29;;;;;;;11.50;10.23;;;;;;;;;;495863;27;972;-70
2023/12/19 01:32:44;;;;;;;11.70;10.32;;;;;;;;;;493905;27;1391;-70
2023/12/19 01:33:00;;;;;;;11.43;10.00;;;;;;;;;;493255;27;1142;-70
2023/12/19 01:33:15;;;;;;;11.77;10.27;;;;;;;;;;491293;28;1315;-70
2023/12/19 01:33:31;;;;;;;11.93;10.27;;;;;;;;;;490109;28;1266;-71
2023/12/19 01:33:46;;;;;;;11.75;10.18;;;;;;;;;;489720;28;1242;-71
2023/12/19 01:34:01;;;;;;;11.37;10.17;;;;;;;;;;488141;28;917;-70
2023/12/19 01:34:17;;;;;;;11.07;9.87;;;;;;;;;;489541;28;1088;-71
2023/12/19 01:34:32;;;;;;;11.85;10.40;;;;;;;;;;489772;28;1398;-70